sensor_id;sensor_type;location;lat;lon;timestamp;temperature;humidity
16625;DHT22;8426;48.496;9.098;2022-08-01T00:04:40;18.30;99.90
16625;DHT22;8426;48.496;9.098;2022-08-01T00:09:44;18.10;99.90
16625;DHT22;8426;48.496;9.098;2022-08-01T00:14:47;17.80;99.90
16625;DHT22;8426;48.496;9.098;2022-08-01T00:19:52;17.50;99.90
16625;DHT22;8426;48.496;9.098;2022-08-01T00:24:55;17.20;99.90
16625;DHT22;8426;48.496;9.098;2022-08-01T00:29:58;17.00;99.90
16625;DHT22;8426;48.496;9.098;2022-08-01T00:35:16;16.90;99.90
16625;DHT22;8426;48.496;9.098;2022-08-01T00:40:20;16.70;99.90
16625;DHT22;8426;48.496;9.098;2022-08-01T00:45:23;16.50;99.90
16625;DHT22;8426;48.496;9.098;2022-08-01T00:50:29;16.50;99.90
16625;DHT22;8426;48.496;9.098;2022-08-01T00:55:33;16.50;99.90
16625;DHT22;8426;48.496;9.098;2022-08-01T01:00:37;16.50;99.90
16625;DHT22;8426;48.496;9.098;2022-08-01T01:06:05;16.30;99.90
16625;DHT22;8426;48.496;9.098;2022-08-01T01:11:15;16.10;99.90
16625;DHT22;8426;48.496;9.098;2022-08-01T01:16:22;15.90;99.90
16625;DHT22;8426;48.496;9.098;2022-08-01T01:21:39;16.00;99.90
16625;DHT22;8426;48.496;9.098;2022-08-01T01:26:54;16.00;99.90
16625;DHT22;8426;48.496;9.098;2022-08-01T01:32:06;15.90;99.90
16625;DHT22;8426;48.496;9.098;2022-08-01T01:37:14;15.90;99.90
16625;DHT22;8426;48.496;9.098;2022-08-01T01:42:19;15.90;99.90
16625;DHT22;8426;48.496;9.098;2022-08-01T01:47:25;15.80;99.90
16625;DHT22;8426;48.496;9.098;2022-08-01T01:52:32;15.70;99.90
16625;DHT22;8426;48.496;9.098;2022-08-01T01:57:40;15.70;99.90
16625;DHT22;8426;48.496;9.098;2022-08-01T02:02:46;15.60;99.90
16625;DHT22;8426;48.496;9.098;2022-08-01T02:07:51;15.60;99.90
16625;DHT22;8426;48.496;9.098;2022-08-01T02:13:03;15.50;99.90
16625;DHT22;8426;48.496;9.098;2022-08-01T02:18:08;15.60;99.90
16625;DHT22;8426;48.496;9.098;2022-08-01T02:23:13;15.50;99.90
16625;DHT22;8426;48.496;9.098;2022-08-01T02:28:21;15.40;99.90
16625;DHT22;8426;48.496;9.098;2022-08-01T02:33:34;15.40;99.90
16625;DHT22;8426;48.496;9.098;2022-08-01T02:38:43;15.30;99.90
16625;DHT22;8426;48.496;9.098;2022-08-01T02:43:49;15.30;99.90
16625;DHT22;8426;48.496;9.098;2022-08-01T02:48:57;15.20;99.90
16625;DHT22;8426;48.496;9.098;2022-08-01T02:54:03;15.20;99.90
16625;DHT22;8426;48.496;9.098;2022-08-01T02:59:10;15.20;99.90
16625;DHT22;8426;48.496;9.098;2022-08-01T03:04:18;15.10;99.90
16625;DHT22;8426;48.496;9.098;2022-08-01T03:09:23;15.00;99.90
16625;DHT22;8426;48.496;9.098;2022-08-01T03:14:28;15.00;99.90
16625;DHT22;8426;48.496;9.098;2022-08-01T03:19:35;14.90;99.90
16625;DHT22;8426;48.496;9.098;2022-08-01T03:24:41;14.90;99.90
16625;DHT22;8426;48.496;9.098;2022-08-01T03:29:45;14.80;99.90
16625;DHT22;8426;48.496;9.098;2022-08-01T03:34:51;14.70;99.90
16625;DHT22;8426;48.496;9.098;2022-08-01T03:40:04;14.70;99.90
16625;DHT22;8426;48.496;9.098;2022-08-01T03:45:11;14.70;99.90
16625;DHT22;8426;48.496;9.098;2022-08-01T03:50:46;14.60;99.90
16625;DHT22;8426;48.496;9.098;2022-08-01T03:55:52;14.60;99.90
16625;DHT22;8426;48.496;9.098;2022-08-01T04:00:56;14.60;99.90
16625;DHT22;8426;48.496;9.098;2022-08-01T04:06:05;14.60;99.90
16625;DHT22;8426;48.496;9.098;2022-08-01T04:11:12;14.60;99.90
16625;DHT22;8426;48.496;9.098;2022-08-01T04:16:16;14.60;99.90
16625;DHT22;8426;48.496;9.098;2022-08-01T04:21:25;14.60;99.90
16625;DHT22;8426;48.496;9.098;2022-08-01T04:26:32;14.70;99.90
16625;DHT22;8426;48.496;9.098;2022-08-01T04:31:39;14.70;99.90
16625;DHT22;8426;48.496;9.098;2022-08-01T04:36:47;14.90;99.90
16625;DHT22;8426;48.496;9.098;2022-08-01T04:41:51;15.00;99.90
16625;DHT22;8426;48.496;9.098;2022-08-01T04:46:59;15.00;99.90
16625;DHT22;8426;48.496;9.098;2022-08-01T04:52:07;14.90;99.90
16625;DHT22;8426;48.496;9.098;2022-08-01T04:57:18;14.90;99.90
16625;DHT22;8426;48.496;9.098;2022-08-01T05:02:23;15.00;99.90
16625;DHT22;8426;48.496;9.098;2022-08-01T05:07:32;15.10;99.90
16625;DHT22;8426;48.496;9.098;2022-08-01T05:12:46;15.30;99.90
16625;DHT22;8426;48.496;9.098;2022-08-01T05:17:50;15.50;99.90
16625;DHT22;8426;48.496;9.098;2022-08-01T05:22:55;15.90;99.90
16625;DHT22;8426;48.496;9.098;2022-08-01T05:27:59;16.50;99.90
16625;DHT22;8426;48.496;9.098;2022-08-01T05:33:02;17.00;99.90
16625;DHT22;8426;48.496;9.098;2022-08-01T05:38:07;17.40;99.90
16625;DHT22;8426;48.496;9.098;2022-08-01T05:43:15;17.80;99.90
16625;DHT22;8426;48.496;9.098;2022-08-01T05:48:21;18.00;99.90
16625;DHT22;8426;48.496;9.098;2022-08-01T05:53:26;18.30;99.90
16625;DHT22;8426;48.496;9.098;2022-08-01T05:58:30;18.70;99.90
16625;DHT22;8426;48.496;9.098;2022-08-01T06:03:34;19.40;99.90
16625;DHT22;8426;48.496;9.098;2022-08-01T06:08:39;19.70;99.90
16625;DHT22;8426;48.496;9.098;2022-08-01T06:13:42;20.30;99.90
16625;DHT22;8426;48.496;9.098;2022-08-01T06:18:49;22.60;99.90
16625;DHT22;8426;48.496;9.098;2022-08-01T06:23:59;26.70;99.90
16625;DHT22;8426;48.496;9.098;2022-08-01T06:29:02;29.50;99.90
16625;DHT22;8426;48.496;9.098;2022-08-01T06:34:06;30.10;96.90
16625;DHT22;8426;48.496;9.098;2022-08-01T06:39:11;30.50;95.00
16625;DHT22;8426;48.496;9.098;2022-08-01T06:44:16;28.90;96.40
16625;DHT22;8426;48.496;9.098;2022-08-01T06:49:19;28.00;97.70
16625;DHT22;8426;48.496;9.098;2022-08-01T06:54:24;26.60;98.90
16625;DHT22;8426;48.496;9.098;2022-08-01T06:59:28;24.90;99.90
16625;DHT22;8426;48.496;9.098;2022-08-01T07:04:32;24.50;99.90
16625;DHT22;8426;48.496;9.098;2022-08-01T07:09:37;24.80;99.90
16625;DHT22;8426;48.496;9.098;2022-08-01T07:14:42;27.10;99.90
16625;DHT22;8426;48.496;9.098;2022-08-01T07:19:46;30.30;97.60
16625;DHT22;8426;48.496;9.098;2022-08-01T07:24:52;34.50;91.80
16625;DHT22;8426;48.496;9.098;2022-08-01T07:29:55;37.30;84.20
16625;DHT22;8426;48.496;9.098;2022-08-01T07:34:59;38.60;77.80
16625;DHT22;8426;48.496;9.098;2022-08-01T07:40:05;38.40;76.70
16625;DHT22;8426;48.496;9.098;2022-08-01T07:45:10;39.20;74.50
16625;DHT22;8426;48.496;9.098;2022-08-01T07:50:13;38.40;75.00
16625;DHT22;8426;48.496;9.098;2022-08-01T07:55:19;39.40;69.40
16625;DHT22;8426;48.496;9.098;2022-08-01T08:00:28;38.10;72.40
16625;DHT22;8426;48.496;9.098;2022-08-01T08:05:40;38.00;73.50
16625;DHT22;8426;48.496;9.098;2022-08-01T08:11:03;36.70;73.10
16625;DHT22;8426;48.496;9.098;2022-08-01T08:16:06;37.40;74.50
16625;DHT22;8426;48.496;9.098;2022-08-01T08:21:10;38.00;72.50
16625;DHT22;8426;48.496;9.098;2022-08-01T08:26:15;37.30;72.80
16625;DHT22;8426;48.496;9.098;2022-08-01T08:31:18;37.30;72.90
16625;DHT22;8426;48.496;9.098;2022-08-01T08:36:42;36.90;73.60
16625;DHT22;8426;48.496;9.098;2022-08-01T08:41:53;37.40;73.00
16625;DHT22;8426;48.496;9.098;2022-08-01T08:46:58;36.80;72.80
16625;DHT22;8426;48.496;9.098;2022-08-01T08:52:05;36.60;73.30
16625;DHT22;8426;48.496;9.098;2022-08-01T08:57:14;37.20;71.00
16625;DHT22;8426;48.496;9.098;2022-08-01T09:02:27;36.80;73.10
16625;DHT22;8426;48.496;9.098;2022-08-01T09:07:30;36.50;72.30
16625;DHT22;8426;48.496;9.098;2022-08-01T09:13:02;35.70;75.40
16625;DHT22;8426;48.496;9.098;2022-08-01T09:18:05;36.70;72.30
16625;DHT22;8426;48.496;9.098;2022-08-01T09:23:31;35.40;73.70
16625;DHT22;8426;48.496;9.098;2022-08-01T09:28:36;36.00;73.20
16625;DHT22;8426;48.496;9.098;2022-08-01T09:33:51;36.20;71.80
16625;DHT22;8426;48.496;9.098;2022-08-01T09:38:55;33.50;77.40
16625;DHT22;8426;48.496;9.098;2022-08-01T09:44:01;34.80;76.20
16625;DHT22;8426;48.496;9.098;2022-08-01T09:49:05;36.10;76.50
16625;DHT22;8426;48.496;9.098;2022-08-01T09:54:28;36.80;73.90
16625;DHT22;8426;48.496;9.098;2022-08-01T09:59:36;35.20;71.90
16625;DHT22;8426;48.496;9.098;2022-08-01T10:05:08;35.70;73.60
16625;DHT22;8426;48.496;9.098;2022-08-01T10:10:22;34.20;76.00
16625;DHT22;8426;48.496;9.098;2022-08-01T10:15:31;33.00;77.00
16625;DHT22;8426;48.496;9.098;2022-08-01T10:20:38;33.40;78.40
16625;DHT22;8426;48.496;9.098;2022-08-01T10:25:54;31.60;84.40
16625;DHT22;8426;48.496;9.098;2022-08-01T10:31:11;31.10;84.40
16625;DHT22;8426;48.496;9.098;2022-08-01T10:36:19;31.10;84.60
16625;DHT22;8426;48.496;9.098;2022-08-01T10:41:26;29.70;85.50
16625;DHT22;8426;48.496;9.098;2022-08-01T10:46:34;28.90;89.20
16625;DHT22;8426;48.496;9.098;2022-08-01T10:51:46;28.30;90.50
16625;DHT22;8426;48.496;9.098;2022-08-01T10:56:59;29.20;88.70
16625;DHT22;8426;48.496;9.098;2022-08-01T11:02:05;29.20;87.20
16625;DHT22;8426;48.496;9.098;2022-08-01T11:07:16;29.10;90.20
16625;DHT22;8426;48.496;9.098;2022-08-01T11:12:38;29.00;90.40
16625;DHT22;8426;48.496;9.098;2022-08-01T11:17:46;29.30;87.90
16625;DHT22;8426;48.496;9.098;2022-08-01T11:23:16;29.00;90.30
16625;DHT22;8426;48.496;9.098;2022-08-01T11:28:24;28.90;90.40
16625;DHT22;8426;48.496;9.098;2022-08-01T11:33:50;29.00;90.00
16625;DHT22;8426;48.496;9.098;2022-08-01T11:39:15;28.90;90.70
16625;DHT22;8426;48.496;9.098;2022-08-01T11:44:48;29.00;90.40
16625;DHT22;8426;48.496;9.098;2022-08-01T11:49:53;29.00;90.40
16625;DHT22;8426;48.496;9.098;2022-08-01T11:55:06;28.60;90.80
16625;DHT22;8426;48.496;9.098;2022-08-01T12:00:22;27.90;91.80
16625;DHT22;8426;48.496;9.098;2022-08-01T12:05:49;27.30;92.70
16625;DHT22;8426;48.496;9.098;2022-08-01T12:10:54;26.90;92.80
16625;DHT22;8426;48.496;9.098;2022-08-01T12:16:07;26.60;93.30
16625;DHT22;8426;48.496;9.098;2022-08-01T12:21:12;26.70;93.40
16625;DHT22;8426;48.496;9.098;2022-08-01T12:26:15;28.30;92.90
16625;DHT22;8426;48.496;9.098;2022-08-01T12:31:41;30.30;91.70
16625;DHT22;8426;48.496;9.098;2022-08-01T12:36:52;30.90;88.40
16625;DHT22;8426;48.496;9.098;2022-08-01T12:42:06;29.90;88.10
16625;DHT22;8426;48.496;9.098;2022-08-01T12:47:10;28.60;90.20
16625;DHT22;8426;48.496;9.098;2022-08-01T12:52:15;29.20;90.60
16625;DHT22;8426;48.496;9.098;2022-08-01T12:58:03;29.80;89.40
16625;DHT22;8426;48.496;9.098;2022-08-01T13:03:08;30.40;89.40
16625;DHT22;8426;48.496;9.098;2022-08-01T13:08:14;30.40;88.20
16625;DHT22;8426;48.496;9.098;2022-08-01T13:13:18;30.20;87.70
16625;DHT22;8426;48.496;9.098;2022-08-01T13:18:32;29.90;89.40
16625;DHT22;8426;48.496;9.098;2022-08-01T13:23:37;30.10;87.60
16625;DHT22;8426;48.496;9.098;2022-08-01T13:29:04;30.30;90.00
16625;DHT22;8426;48.496;9.098;2022-08-01T13:34:15;29.90;88.60
16625;DHT22;8426;48.496;9.098;2022-08-01T13:39:27;30.20;87.10
16625;DHT22;8426;48.496;9.098;2022-08-01T13:44:47;30.50;86.00
16625;DHT22;8426;48.496;9.098;2022-08-01T13:49:52;31.20;82.90
16625;DHT22;8426;48.496;9.098;2022-08-01T13:55:11;30.50;87.70
16625;DHT22;8426;48.496;9.098;2022-08-01T14:00:16;29.80;88.70
16625;DHT22;8426;48.496;9.098;2022-08-01T14:05:20;29.00;90.90
16625;DHT22;8426;48.496;9.098;2022-08-01T14:10:25;28.80;91.10
16625;DHT22;8426;48.496;9.098;2022-08-01T14:15:52;28.30;91.50
16625;DHT22;8426;48.496;9.098;2022-08-01T14:20:57;28.30;91.40
16625;DHT22;8426;48.496;9.098;2022-08-01T14:26:21;28.20;92.10
16625;DHT22;8426;48.496;9.098;2022-08-01T14:31:24;28.40;91.90
16625;DHT22;8426;48.496;9.098;2022-08-01T14:36:41;28.80;91.30
16625;DHT22;8426;48.496;9.098;2022-08-01T14:41:46;28.50;91.50
16625;DHT22;8426;48.496;9.098;2022-08-01T14:46:50;27.90;93.70
16625;DHT22;8426;48.496;9.098;2022-08-01T14:52:01;27.70;94.90
16625;DHT22;8426;48.496;9.098;2022-08-01T14:57:12;27.70;94.00
16625;DHT22;8426;48.496;9.098;2022-08-01T15:02:28;27.50;94.50
16625;DHT22;8426;48.496;9.098;2022-08-01T15:07:40;28.00;94.20
16625;DHT22;8426;48.496;9.098;2022-08-01T15:13:19;28.50;94.40
16625;DHT22;8426;48.496;9.098;2022-08-01T15:18:31;28.60;93.60
16625;DHT22;8426;48.496;9.098;2022-08-01T15:23:36;28.50;93.60
16625;DHT22;8426;48.496;9.098;2022-08-01T15:28:41;28.30;94.20
16625;DHT22;8426;48.496;9.098;2022-08-01T15:33:51;28.50;93.40
16625;DHT22;8426;48.496;9.098;2022-08-01T15:39:20;27.80;94.60
16625;DHT22;8426;48.496;9.098;2022-08-01T15:44:26;27.70;95.00
16625;DHT22;8426;48.496;9.098;2022-08-01T15:49:45;27.80;94.90
16625;DHT22;8426;48.496;9.098;2022-08-01T15:55:03;27.80;94.70
16625;DHT22;8426;48.496;9.098;2022-08-01T16:00:09;27.60;95.10
16625;DHT22;8426;48.496;9.098;2022-08-01T16:05:22;27.40;95.20
16625;DHT22;8426;48.496;9.098;2022-08-01T16:10:26;27.20;96.30
16625;DHT22;8426;48.496;9.098;2022-08-01T16:15:32;27.10;95.50
16625;DHT22;8426;48.496;9.098;2022-08-01T16:20:39;26.90;96.00
16625;DHT22;8426;48.496;9.098;2022-08-01T16:25:47;26.60;96.30
16625;DHT22;8426;48.496;9.098;2022-08-01T16:30:53;26.40;96.70
16625;DHT22;8426;48.496;9.098;2022-08-01T16:36:24;26.30;97.50
16625;DHT22;8426;48.496;9.098;2022-08-01T16:41:28;26.10;97.60
16625;DHT22;8426;48.496;9.098;2022-08-01T16:46:33;26.00;98.80
16625;DHT22;8426;48.496;9.098;2022-08-01T16:51:45;25.80;99.90
16625;DHT22;8426;48.496;9.098;2022-08-01T16:56:52;25.60;99.90
16625;DHT22;8426;48.496;9.098;2022-08-01T17:02:01;25.50;99.90
16625;DHT22;8426;48.496;9.098;2022-08-01T17:07:06;25.40;99.90
16625;DHT22;8426;48.496;9.098;2022-08-01T17:12:10;25.20;99.90
16625;DHT22;8426;48.496;9.098;2022-08-01T17:17:27;24.90;99.90
16625;DHT22;8426;48.496;9.098;2022-08-01T17:22:38;24.60;99.90
16625;DHT22;8426;48.496;9.098;2022-08-01T17:27:43;24.40;99.90
16625;DHT22;8426;48.496;9.098;2022-08-01T17:32:54;24.20;99.90
16625;DHT22;8426;48.496;9.098;2022-08-01T17:38:05;24.00;99.90
16625;DHT22;8426;48.496;9.098;2022-08-01T17:43:08;23.90;99.90
16625;DHT22;8426;48.496;9.098;2022-08-01T17:48:15;23.80;99.90
16625;DHT22;8426;48.496;9.098;2022-08-01T17:53:22;23.60;99.90
16625;DHT22;8426;48.496;9.098;2022-08-01T17:58:32;23.40;99.90
16625;DHT22;8426;48.496;9.098;2022-08-01T18:03:56;23.20;99.90
16625;DHT22;8426;48.496;9.098;2022-08-01T18:09:01;22.90;99.90
16625;DHT22;8426;48.496;9.098;2022-08-01T18:14:11;22.70;99.90
16625;DHT22;8426;48.496;9.098;2022-08-01T18:19:21;22.40;99.90
16625;DHT22;8426;48.496;9.098;2022-08-01T18:24:25;22.30;99.90
16625;DHT22;8426;48.496;9.098;2022-08-01T18:29:35;22.20;99.90
16625;DHT22;8426;48.496;9.098;2022-08-01T18:34:50;22.10;99.90
16625;DHT22;8426;48.496;9.098;2022-08-01T18:39:54;22.00;99.90
16625;DHT22;8426;48.496;9.098;2022-08-01T18:45:05;21.50;99.90
16625;DHT22;8426;48.496;9.098;2022-08-01T18:50:12;21.20;99.90
16625;DHT22;8426;48.496;9.098;2022-08-01T18:55:17;21.00;99.90
16625;DHT22;8426;48.496;9.098;2022-08-01T19:00:22;20.70;99.90
16625;DHT22;8426;48.496;9.098;2022-08-01T19:05:34;20.50;99.90
16625;DHT22;8426;48.496;9.098;2022-08-01T19:10:40;20.20;99.90
16625;DHT22;8426;48.496;9.098;2022-08-01T19:15:47;20.10;99.90
16625;DHT22;8426;48.496;9.098;2022-08-01T19:20:52;20.00;99.90
16625;DHT22;8426;48.496;9.098;2022-08-01T19:25:56;19.90;99.90
16625;DHT22;8426;48.496;9.098;2022-08-01T19:31:01;19.80;99.90
16625;DHT22;8426;48.496;9.098;2022-08-01T19:36:08;19.70;99.90
16625;DHT22;8426;48.496;9.098;2022-08-01T19:41:21;19.80;99.90
16625;DHT22;8426;48.496;9.098;2022-08-01T19:46:29;19.70;99.90
16625;DHT22;8426;48.496;9.098;2022-08-01T19:51:39;19.60;99.90
16625;DHT22;8426;48.496;9.098;2022-08-01T19:56:48;19.70;99.90
16625;DHT22;8426;48.496;9.098;2022-08-01T20:01:52;19.60;99.90
16625;DHT22;8426;48.496;9.098;2022-08-01T20:06:58;19.60;99.90
16625;DHT22;8426;48.496;9.098;2022-08-01T20:12:02;19.60;99.90
16625;DHT22;8426;48.496;9.098;2022-08-01T20:17:06;19.60;99.90
16625;DHT22;8426;48.496;9.098;2022-08-01T20:22:12;19.70;99.90
16625;DHT22;8426;48.496;9.098;2022-08-01T20:27:18;19.70;99.90
16625;DHT22;8426;48.496;9.098;2022-08-01T20:32:32;19.60;99.90
16625;DHT22;8426;48.496;9.098;2022-08-01T20:37:38;19.40;99.90
16625;DHT22;8426;48.496;9.098;2022-08-01T20:43:02;19.40;99.90
16625;DHT22;8426;48.496;9.098;2022-08-01T20:48:11;19.30;99.90
16625;DHT22;8426;48.496;9.098;2022-08-01T20:53:16;19.30;99.90
16625;DHT22;8426;48.496;9.098;2022-08-01T20:58:29;19.30;99.90
16625;DHT22;8426;48.496;9.098;2022-08-01T21:03:38;19.20;99.90
16625;DHT22;8426;48.496;9.098;2022-08-01T21:08:45;19.10;99.90
16625;DHT22;8426;48.496;9.098;2022-08-01T21:13:50;19.10;99.90
16625;DHT22;8426;48.496;9.098;2022-08-01T21:18:56;19.00;99.90
16625;DHT22;8426;48.496;9.098;2022-08-01T21:24:22;19.00;99.90
16625;DHT22;8426;48.496;9.098;2022-08-01T21:29:28;19.00;99.90
16625;DHT22;8426;48.496;9.098;2022-08-01T21:34:35;18.90;99.90
16625;DHT22;8426;48.496;9.098;2022-08-01T21:39:44;18.80;99.90
16625;DHT22;8426;48.496;9.098;2022-08-01T21:44:47;18.90;99.90
16625;DHT22;8426;48.496;9.098;2022-08-01T21:49:51;18.80;99.90
16625;DHT22;8426;48.496;9.098;2022-08-01T21:55:00;18.60;99.90
16625;DHT22;8426;48.496;9.098;2022-08-01T22:00:13;18.50;99.90
16625;DHT22;8426;48.496;9.098;2022-08-01T22:05:28;18.40;99.90
16625;DHT22;8426;48.496;9.098;2022-08-01T22:10:57;18.20;99.90
16625;DHT22;8426;48.496;9.098;2022-08-01T22:16:02;18.10;99.90
16625;DHT22;8426;48.496;9.098;2022-08-01T22:21:07;18.00;99.90
16625;DHT22;8426;48.496;9.098;2022-08-01T22:26:12;18.00;99.90
16625;DHT22;8426;48.496;9.098;2022-08-01T22:31:16;17.90;99.90
16625;DHT22;8426;48.496;9.098;2022-08-01T22:36:20;17.90;99.90
16625;DHT22;8426;48.496;9.098;2022-08-01T22:41:29;17.80;99.90
16625;DHT22;8426;48.496;9.098;2022-08-01T22:46:58;17.70;99.90
16625;DHT22;8426;48.496;9.098;2022-08-01T22:52:06;17.70;99.90
16625;DHT22;8426;48.496;9.098;2022-08-01T22:57:21;17.60;99.90
16625;DHT22;8426;48.496;9.098;2022-08-01T23:02:27;17.70;99.90
16625;DHT22;8426;48.496;9.098;2022-08-01T23:07:34;17.70;99.90
16625;DHT22;8426;48.496;9.098;2022-08-01T23:12:42;17.60;99.90
16625;DHT22;8426;48.496;9.098;2022-08-01T23:17:47;17.50;99.90
16625;DHT22;8426;48.496;9.098;2022-08-01T23:22:51;17.50;99.90
16625;DHT22;8426;48.496;9.098;2022-08-01T23:27:58;17.40;99.90
16625;DHT22;8426;48.496;9.098;2022-08-01T23:33:06;17.30;99.90
16625;DHT22;8426;48.496;9.098;2022-08-01T23:38:16;17.20;99.90
16625;DHT22;8426;48.496;9.098;2022-08-01T23:43:22;17.00;99.90
16625;DHT22;8426;48.496;9.098;2022-08-01T23:48:26;17.00;99.90
16625;DHT22;8426;48.496;9.098;2022-08-01T23:53:29;16.90;99.90
16625;DHT22;8426;48.496;9.098;2022-08-01T23:58:34;16.80;99.90
